Time;durP1;ratioP1;P1;durP2;ratioP2;P2;SDS_P1;SDS_P2;PMS_P1;PMS_P2;Temp;Humidity;BMP_temperature;BMP_pressure;BME280_temperature;BME280_humidity;BME280_pressure;Samples;Min_cycle;Max_cycle;Signal;HPM_P1;HPM_P2
2023/09/23 00:00:07;;;;;;;14.27;10.37;;;;;;;;;;5076116;28;20453;-69
2023/09/23 00:02:33;;;;;;;16.05;10.98;;;;;;;;;;5073139;28;20369;-67
2023/09/23 00:04:58;;;;;;;17.30;11.20;;;;;;;;;;5083086;28;20080;-68
2023/09/23 00:07:28;;;;;;;17.97;11.37;;;;;;;;;;5091256;28;20491;-69
2023/09/23 00:09:53;;;;;;;20.03;11.80;;;;;;;;;;5076153;28;20476;-67
2023/09/23 00:12:19;;;;;;;18.57;12.03;;;;;;;;;;5079515;28;20055;-68
2023/09/23 00:14:44;;;;;;;16.27;11.30;;;;;;;;;;5074967;28;20031;-67
2023/09/23 00:17:10;;;;;;;16.70;11.80;;;;;;;;;;5074445;28;20031;-68
2023/09/23 00:19:40;;;;;;;19.90;11.23;;;;;;;;;;5075677;28;20447;-69
2023/09/23 00:22:05;;;;;;;19.43;12.47;;;;;;;;;;5080751;28;20050;-66
2023/09/23 00:24:31;;;;;;;18.97;12.73;;;;;;;;;;5074826;28;20503;-67
2023/09/23 00:26:59;;;;;;;23.30;14.20;;;;;;;;;;5074712;28;20039;-67
2023/09/23 00:29:27;;;;;;;20.80;13.37;;;;;;;;;;5074338;28;20469;-67
2023/09/23 00:31:54;;;;;;;20.20;13.47;;;;;;;;;;5087160;28;20371;-66
2023/09/23 00:34:20;;;;;;;21.30;14.03;;;;;;;;;;5094366;28;20027;-67
2023/09/23 00:36:45;;;;;;;21.87;14.23;;;;;;;;;;5084119;28;20021;-66
2023/09/23 00:39:10;;;;;;;19.97;14.17;;;;;;;;;;5074609;28;20024;-66
2023/09/23 00:41:35;;;;;;;21.40;14.17;;;;;;;;;;5083684;28;20077;-65
2023/09/23 00:44:01;;;;;;;20.60;13.47;;;;;;;;;;5094108;28;20035;-67
2023/09/23 00:46:26;;;;;;;22.00;14.30;;;;;;;;;;5093602;28;20028;-62
2023/09/23 00:48:53;;;;;;;22.23;13.80;;;;;;;;;;5091810;28;20086;-62
2023/09/23 00:51:19;;;;;;;21.53;13.10;;;;;;;;;;5075306;28;20024;-63
2023/09/23 00:53:44;;;;;;;18.07;12.00;;;;;;;;;;5074192;28;20024;-61
2023/09/23 00:56:09;;;;;;;19.27;12.30;;;;;;;;;;5074330;28;20539;-61
2023/09/23 00:58:38;;;;;;;17.53;12.90;;;;;;;;;;5074037;28;20025;-63
2023/09/23 01:04:08;;;;;;;22.47;13.17;;;;;;;;;;5072078;28;20024;-68
2023/09/23 01:06:33;;;;;;;21.67;12.67;;;;;;;;;;5083280;28;20048;-68
2023/09/23 01:09:00;;;;;;;19.60;12.27;;;;;;;;;;5078286;28;20029;-68
2023/09/23 01:11:26;;;;;;;17.37;11.93;;;;;;;;;;5077284;28;20442;-67
2023/09/23 01:13:52;;;;;;;19.63;12.80;;;;;;;;;;5073277;28;20021;-68
2023/09/23 01:16:17;;;;;;;17.60;12.00;;;;;;;;;;5073871;28;20015;-66
2023/09/23 01:18:48;;;;;;;17.70;12.40;;;;;;;;;;5073853;28;20541;-68
2023/09/23 01:21:14;;;;;;;17.98;12.10;;;;;;;;;;5074109;28;20488;-67
2023/09/23 01:23:39;;;;;;;19.43;12.97;;;;;;;;;;5074074;28;20040;-66
2023/09/23 01:26:04;;;;;;;18.30;12.43;;;;;;;;;;5077430;28;20032;-66
2023/09/23 01:28:31;;;;;;;19.70;12.63;;;;;;;;;;5073593;28;20086;-67
2023/09/23 01:30:57;;;;;;;19.43;13.20;;;;;;;;;;5077565;28;20047;-68
2023/09/23 01:33:23;;;;;;;18.30;12.57;;;;;;;;;;5072091;28;20095;-67
2023/09/23 01:35:48;;;;;;;20.27;13.13;;;;;;;;;;5073138;28;20012;-67
2023/09/23 01:38:15;;;;;;;17.60;11.47;;;;;;;;;;5073767;28;20021;-64
2023/09/23 01:40:40;;;;;;;18.00;11.87;;;;;;;;;;5082878;28;20024;-66
2023/09/23 01:43:09;;;;;;;20.60;13.23;;;;;;;;;;5076278;28;20085;-68
2023/09/23 01:45:34;;;;;;;18.73;12.67;;;;;;;;;;5073625;28;20107;-68
2023/09/23 01:48:00;;;;;;;22.73;13.23;;;;;;;;;;5070754;28;20161;-68
2023/09/23 01:50:26;;;;;;;18.90;12.50;;;;;;;;;;5073327;28;20444;-68
2023/09/23 01:53:00;;;;;;;18.20;12.67;;;;;;;;;;5093506;28;20100;-69
2023/09/23 01:55:26;;;;;;;22.40;13.57;;;;;;;;;;5085838;28;20032;-68
2023/09/23 01:57:51;;;;;;;18.07;12.60;;;;;;;;;;5071056;28;20487;-69
2023/09/23 02:00:24;;;;;;;20.70;12.80;;;;;;;;;;5072486;28;20058;-67
2023/09/23 02:02:49;;;;;;;22.80;13.47;;;;;;;;;;5073210;28;20021;-68
2023/09/23 02:05:27;;;;;;;20.63;12.43;;;;;;;;;;5073302;28;20392;-69
2023/09/23 02:07:54;;;;;;;19.90;12.83;;;;;;;;;;5072420;28;20606;-67
2023/09/23 02:10:24;;;;;;;22.50;13.43;;;;;;;;;;5072840;28;20028;-67
2023/09/23 02:12:49;;;;;;;18.63;12.33;;;;;;;;;;5077509;28;20486;-64
2023/09/23 02:15:15;;;;;;;19.73;12.07;;;;;;;;;;5084954;28;20036;-65
2023/09/23 02:17:40;;;;;;;17.83;12.50;;;;;;;;;;5073291;28;20032;-68
2023/09/23 02:20:17;;;;;;;18.30;12.37;;;;;;;;;;5072988;28;20435;-64
2023/09/23 02:22:43;;;;;;;21.40;13.20;;;;;;;;;;5067626;28;20017;-63
2023/09/23 02:25:11;;;;;;;20.47;12.73;;;;;;;;;;5072583;28;20512;-63
2023/09/23 02:27:37;;;;;;;21.53;12.13;;;;;;;;;;5072512;28;20021;-60
2023/09/23 02:30:02;;;;;;;19.13;11.83;;;;;;;;;;5072406;28;20029;-61
2023/09/23 02:32:28;;;;;;;18.20;12.50;;;;;;;;;;5084815;28;20104;-64
2023/09/23 02:34:53;;;;;;;19.23;12.67;;;;;;;;;;5072841;28;20017;-63
2023/09/23 02:37:18;;;;;;;18.77;12.63;;;;;;;;;;5072804;28;20445;-62
2023/09/23 02:39:43;;;;;;;21.40;11.20;;;;;;;;;;5072392;28;20028;-60
2023/09/23 02:42:10;;;;;;;18.10;11.60;;;;;;;;;;5071832;28;20024;-62
2023/09/23 02:44:35;;;;;;;18.35;12.13;;;;;;;;;;5072449;28;20025;-62
2023/09/23 02:47:00;;;;;;;16.80;11.77;;;;;;;;;;5072619;28;20032;-64
2023/09/23 02:49:26;;;;;;;19.53;11.60;;;;;;;;;;5084466;28;20031;-63
2023/09/23 02:51:51;;;;;;;16.20;10.43;;;;;;;;;;5072470;28;20105;-61
2023/09/23 02:54:17;;;;;;;18.37;11.77;;;;;;;;;;5071878;28;20070;-63
2023/09/23 02:56:42;;;;;;;17.27;11.20;;;;;;;;;;5072225;28;20013;-63
2023/09/23 02:59:13;;;;;;;17.37;11.07;;;;;;;;;;5071945;28;20082;-65
2023/09/23 03:01:39;;;;;;;17.20;10.05;;;;;;;;;;5072186;28;20052;-61
2023/09/23 03:04:16;;;;;;;16.80;10.20;;;;;;;;;;5072406;28;20488;-58
2023/09/23 03:06:43;;;;;;;16.03;10.20;;;;;;;;;;5084214;28;20036;-60
2023/09/23 03:09:10;;;;;;;16.67;9.87;;;;;;;;;;5071933;28;20024;-63
2023/09/23 03:11:42;;;;;;;17.10;10.30;;;;;;;;;;5072434;28;20428;-63
2023/09/23 03:14:12;;;;;;;16.33;9.93;;;;;;;;;;5075999;28;20103;-63
2023/09/23 03:16:44;;;;;;;15.53;9.77;;;;;;;;;;5068507;28;20103;-62
2023/09/23 03:19:10;;;;;;;14.77;9.10;;;;;;;;;;5071671;28;20036;-58
2023/09/23 03:21:37;;;;;;;12.60;8.40;;;;;;;;;;5075616;28;20016;-60
2023/09/23 03:24:02;;;;;;;13.10;7.50;;;;;;;;;;5076294;28;20460;-59
2023/09/23 03:26:27;;;;;;;14.63;9.37;;;;;;;;;;5072030;28;20044;-63
2023/09/23 03:28:53;;;;;;;15.03;7.53;;;;;;;;;;5071980;28;20020;-64
2023/09/23 03:31:18;;;;;;;13.20;8.63;;;;;;;;;;5071779;28;20577;-66
2023/09/23 03:33:44;;;;;;;15.53;9.00;;;;;;;;;;5073448;28;20090;-65
2023/09/23 03:36:13;;;;;;;14.83;9.80;;;;;;;;;;5076137;28;20483;-64
2023/09/23 03:38:39;;;;;;;13.17;9.13;;;;;;;;;;5075754;28;20037;-65
2023/09/23 03:41:04;;;;;;;13.77;8.53;;;;;;;;;;5075047;28;20036;-65
2023/09/23 03:43:29;;;;;;;13.33;8.40;;;;;;;;;;5075878;28;20047;-65
2023/09/23 03:45:55;;;;;;;13.67;8.30;;;;;;;;;;5075607;28;20366;-64
2023/09/23 03:48:21;;;;;;;12.23;7.33;;;;;;;;;;5075456;28;20024;-64
2023/09/23 03:50:55;;;;;;;12.80;6.83;;;;;;;;;;5075479;28;20119;-67
2023/09/23 03:53:21;;;;;;;13.93;8.93;;;;;;;;;;5074443;28;20023;-65
2023/09/23 03:55:47;;;;;;;11.13;7.30;;;;;;;;;;5075402;28;20107;-65
2023/09/23 03:58:13;;;;;;;14.03;8.03;;;;;;;;;;5075597;28;20031;-67
2023/09/23 04:00:39;;;;;;;14.30;8.43;;;;;;;;;;5075580;28;20119;-63
2023/09/23 04:03:04;;;;;;;13.63;8.87;;;;;;;;;;5075475;28;20446;-64
2023/09/23 04:05:31;;;;;;;14.67;7.90;;;;;;;;;;5071379;28;20024;-65
2023/09/23 04:07:57;;;;;;;16.47;9.70;;;;;;;;;;5074041;28;20041;-65
2023/09/23 04:10:25;;;;;;;13.80;8.30;;;;;;;;;;5074415;28;20029;-66
2023/09/23 04:12:51;;;;;;;15.70;8.80;;;;;;;;;;5086935;28;20360;-65
2023/09/23 04:15:19;;;;;;;14.17;7.90;;;;;;;;;;5088107;28;20016;-65
2023/09/23 04:17:44;;;;;;;17.37;9.80;;;;;;;;;;5081468;28;20472;-65
2023/09/23 04:20:19;;;;;;;16.37;9.63;;;;;;;;;;5078265;28;20085;-64
2023/09/23 04:22:48;;;;;;;15.20;9.53;;;;;;;;;;5076173;28;20085;-64
2023/09/23 04:25:16;;;;;;;16.07;9.80;;;;;;;;;;5076542;28;20021;-63
2023/09/23 04:27:47;;;;;;;16.57;9.87;;;;;;;;;;5073183;28;20065;-63
2023/09/23 04:30:13;;;;;;;15.77;9.37;;;;;;;;;;5075605;28;20024;-62
2023/09/23 04:32:39;;;;;;;17.37;9.90;;;;;;;;;;5080927;28;20032;-64
2023/09/23 04:35:08;;;;;;;18.17;10.17;;;;;;;;;;5078181;28;20476;-62
2023/09/23 04:37:37;;;;;;;17.30;10.37;;;;;;;;;;5075234;28;20073;-63
2023/09/23 04:40:06;;;;;;;22.23;10.20;;;;;;;;;;5078487;28;20074;-65
2023/09/23 04:42:31;;;;;;;18.77;10.17;;;;;;;;;;5075471;28;20024;-68
2023/09/23 04:44:56;;;;;;;16.90;9.63;;;;;;;;;;5074107;28;20530;-68
2023/09/23 04:47:22;;;;;;;17.63;9.63;;;;;;;;;;5075628;28;20403;-67
2023/09/23 04:49:48;;;;;;;17.23;9.70;;;;;;;;;;5075053;28;20419;-67
2023/09/23 04:52:15;;;;;;;17.23;9.03;;;;;;;;;;5075161;28;20021;-68
2023/09/23 04:54:40;;;;;;;16.37;9.43;;;;;;;;;;5074911;28;20099;-68
2023/09/23 04:57:06;;;;;;;14.63;8.77;;;;;;;;;;5075255;28;20469;-67
2023/09/23 04:59:32;;;;;;;15.27;8.97;;;;;;;;;;5075200;28;20400;-68
2023/09/23 05:01:59;;;;;;;14.43;8.43;;;;;;;;;;5075080;28;20228;-67
2023/09/23 05:04:24;;;;;;;15.63;8.67;;;;;;;;;;5074787;28;20037;-67
2023/09/23 05:06:50;;;;;;;15.20;7.90;;;;;;;;;;5074380;28;20044;-67
2023/09/23 05:09:16;;;;;;;14.47;8.83;;;;;;;;;;5074805;28;20033;-68
2023/09/23 05:11:41;;;;;;;14.97;8.40;;;;;;;;;;5075066;28;20031;-68
2023/09/23 05:14:07;;;;;;;14.20;8.57;;;;;;;;;;5074825;28;20047;-68
2023/09/23 05:16:32;;;;;;;13.13;8.53;;;;;;;;;;5074816;28;20075;-68
2023/09/23 05:18:57;;;;;;;14.77;8.60;;;;;;;;;;5074889;28;20093;-68
2023/09/23 05:21:22;;;;;;;15.20;9.07;;;;;;;;;;5074655;28;20056;-68
2023/09/23 05:23:49;;;;;;;17.70;9.77;;;;;;;;;;5074634;28;20051;-68
2023/09/23 05:26:16;;;;;;;17.60;8.90;;;;;;;;;;5074761;28;20052;-68
2023/09/23 05:28:41;;;;;;;18.27;9.90;;;;;;;;;;5074375;28;20059;-68
2023/09/23 05:31:06;;;;;;;16.10;9.57;;;;;;;;;;5074764;28;20020;-68
2023/09/23 05:33:31;;;;;;;17.93;10.47;;;;;;;;;;5074312;28;20384;-68
2023/09/23 05:35:57;;;;;;;18.43;10.33;;;;;;;;;;5074347;28;20468;-64
2023/09/23 05:38:23;;;;;;;19.23;9.93;;;;;;;;;;5074564;28;20028;-66
2023/09/23 05:40:49;;;;;;;18.07;10.27;;;;;;;;;;5074461;28;20399;-66
2023/09/23 05:43:14;;;;;;;16.87;10.03;;;;;;;;;;5073880;28;20215;-66
2023/09/23 05:45:39;;;;;;;18.70;11.00;;;;;;;;;;5074098;28;20025;-66
2023/09/23 05:48:05;;;;;;;22.10;12.13;;;;;;;;;;5073784;28;20385;-66
2023/09/23 05:50:31;;;;;;;22.73;12.93;;;;;;;;;;5074077;28;20027;-68
2023/09/23 05:52:57;;;;;;;24.57;12.80;;;;;;;;;;5073794;28;20469;-67
2023/09/23 05:55:22;;;;;;;22.90;12.93;;;;;;;;;;5073825;28;20017;-66
2023/09/23 05:57:49;;;;;;;25.53;13.37;;;;;;;;;;5073039;28;20039;-67
2023/09/23 06:00:17;;;;;;;23.23;13.30;;;;;;;;;;5073798;28;20028;-67
2023/09/23 06:02:45;;;;;;;19.53;11.77;;;;;;;;;;5073741;28;20089;-66
2023/09/23 06:05:10;;;;;;;17.77;11.50;;;;;;;;;;5073953;28;20032;-64
2023/09/23 06:07:35;;;;;;;18.23;10.97;;;;;;;;;;5073583;28;20497;-63
2023/09/23 06:10:00;;;;;;;16.35;9.90;;;;;;;;;;5073707;28;20028;-64
2023/09/23 06:12:29;;;;;;;15.48;10.43;;;;;;;;;;5073668;28;20380;-64
2023/09/23 06:14:54;;;;;;;17.70;10.33;;;;;;;;;;5073347;28;20109;-64
2023/09/23 06:17:20;;;;;;;15.30;10.63;;;;;;;;;;5073729;28;20404;-64
2023/09/23 06:19:45;;;;;;;17.73;10.43;;;;;;;;;;5073410;28;20108;-63
2023/09/23 06:22:10;;;;;;;20.40;10.17;;;;;;;;;;5073410;28;20047;-61
2023/09/23 06:24:35;;;;;;;20.07;11.80;;;;;;;;;;5073465;28;20024;-63
2023/09/23 06:27:00;;;;;;;19.83;11.68;;;;;;;;;;5073260;28;20078;-65
2023/09/23 06:29:27;;;;;;;22.88;13.00;;;;;;;;;;5073094;28;20075;-64
2023/09/23 06:31:54;;;;;;;20.47;12.07;;;;;;;;;;5073065;28;20483;-64
2023/09/23 06:34:19;;;;;;;23.43;12.93;;;;;;;;;;5073529;28;20031;-66
2023/09/23 06:36:44;;;;;;;21.53;12.60;;;;;;;;;;5073192;28;20465;-63
2023/09/23 06:39:09;;;;;;;19.80;11.88;;;;;;;;;;5072035;28;20059;-64
2023/09/23 06:41:35;;;;;;;21.07;11.43;;;;;;;;;;5073435;28;20036;-63
2023/09/23 06:44:00;;;;;;;21.47;13.00;;;;;;;;;;5073469;28;20028;-64
2023/09/23 06:46:26;;;;;;;22.53;12.83;;;;;;;;;;5073415;28;20392;-66
2023/09/23 06:48:51;;;;;;;20.90;13.57;;;;;;;;;;5073226;28;20480;-64
2023/09/23 06:51:16;;;;;;;20.85;13.18;;;;;;;;;;5073449;28;20021;-61
2023/09/23 06:53:42;;;;;;;21.33;12.43;;;;;;;;;;5073383;28;20039;-61
2023/09/23 06:56:08;;;;;;;20.83;13.40;;;;;;;;;;5072697;28;20020;-59
2023/09/23 06:58:33;;;;;;;18.05;10.90;;;;;;;;;;5073372;28;20495;-62
2023/09/23 07:00:58;;;;;;;21.73;12.70;;;;;;;;;;5072973;28;20066;-62
2023/09/23 07:03:23;;;;;;;22.70;13.25;;;;;;;;;;5073220;28;20100;-62
2023/09/23 07:05:48;;;;;;;21.13;13.40;;;;;;;;;;5072713;28;20048;-62
2023/09/23 07:08:14;;;;;;;20.52;11.43;;;;;;;;;;5074033;28;20032;-58
2023/09/23 07:10:39;;;;;;;20.83;12.95;;;;;;;;;;5077353;28;20024;-61
2023/09/23 07:13:05;;;;;;;22.40;13.27;;;;;;;;;;5077351;28;20479;-62
2023/09/23 07:15:34;;;;;;;18.95;12.05;;;;;;;;;;5077056;28;20456;-60
2023/09/23 07:17:59;;;;;;;19.77;13.02;;;;;;;;;;5076817;28;20047;-62
2023/09/23 07:20:26;;;;;;;20.40;12.55;;;;;;;;;;5076999;28;20020;-61
2023/09/23 07:22:51;;;;;;;19.50;12.68;;;;;;;;;;5077118;28;20512;-59
2023/09/23 07:25:16;;;;;;;18.50;12.57;;;;;;;;;;5077031;28;20110;-62
2023/09/23 07:27:42;;;;;;;20.15;12.77;;;;;;;;;;5076943;28;20455;-60
2023/09/23 07:30:07;;;;;;;20.15;13.40;;;;;;;;;;5076921;28;20423;-63
2023/09/23 07:32:32;;;;;;;18.52;10.75;;;;;;;;;;5076633;28;20020;-60
2023/09/23 07:34:58;;;;;;;19.33;12.10;;;;;;;;;;5076911;28;20052;-61
2023/09/23 07:37:23;;;;;;;19.40;11.30;;;;;;;;;;5075278;28;20052;-62
2023/09/23 07:39:48;;;;;;;19.38;11.45;;;;;;;;;;5076729;28;20024;-62
2023/09/23 07:42:13;;;;;;;20.27;12.43;;;;;;;;;;5075978;28;20376;-64
2023/09/23 07:44:39;;;;;;;19.35;12.70;;;;;;;;;;5076765;28;20028;-61
2023/09/23 07:47:04;;;;;;;20.17;12.52;;;;;;;;;;5076359;28;20396;-62
2023/09/23 07:49:29;;;;;;;20.25;12.10;;;;;;;;;;5076535;28;20392;-61
2023/09/23 07:51:56;;;;;;;18.52;11.95;;;;;;;;;;5076224;28;20033;-62
2023/09/23 07:54:21;;;;;;;20.75;11.90;;;;;;;;;;5076520;28;20040;-61
2023/09/23 07:56:46;;;;;;;18.55;12.15;;;;;;;;;;5076361;28;20028;-61
2023/09/23 07:59:12;;;;;;;18.52;12.23;;;;;;;;;;5076251;28;20028;-65
2023/09/23 08:01:40;;;;;;;19.85;10.90;;;;;;;;;;5076405;28;20140;-65
2023/09/23 08:04:05;;;;;;;20.02;11.45;;;;;;;;;;5075884;28;20060;-65
2023/09/23 08:06:33;;;;;;;19.98;12.55;;;;;;;;;;5076029;28;20049;-69
2023/09/23 08:08:58;;;;;;;19.77;11.52;;;;;;;;;;5074035;28;20052;-66
2023/09/23 08:11:24;;;;;;;17.15;10.77;;;;;;;;;;5076543;28;20101;-64
2023/09/23 08:13:49;;;;;;;16.85;10.02;;;;;;;;;;5076126;28;20020;-65
2023/09/23 08:16:14;;;;;;;18.17;10.45;;;;;;;;;;5075892;28;20112;-62
2023/09/23 08:18:40;;;;;;;16.23;9.77;;;;;;;;;;5075995;28;20063;-62
2023/09/23 08:21:06;;;;;;;16.05;10.18;;;;;;;;;;5074952;28;20024;-64
2023/09/23 08:23:31;;;;;;;14.30;8.30;;;;;;;;;;5076034;28;20028;-65
2023/09/23 08:25:56;;;;;;;18.10;10.65;;;;;;;;;;5075902;28;20029;-67
2023/09/23 08:28:22;;;;;;;18.10;10.45;;;;;;;;;;5075564;28;20025;-65
2023/09/23 08:30:50;;;;;;;15.32;9.85;;;;;;;;;;5074273;28;20021;-63
2023/09/23 08:33:15;;;;;;;15.20;8.40;;;;;;;;;;5075419;28;20457;-64
2023/09/23 08:35:42;;;;;;;19.48;9.85;;;;;;;;;;5075588;28;20017;-66
2023/09/23 08:38:08;;;;;;;15.25;9.18;;;;;;;;;;5075169;28;20069;-66
2023/09/23 08:40:34;;;;;;;15.93;9.18;;;;;;;;;;5075729;28;20017;-65
2023/09/23 08:43:01;;;;;;;14.13;8.23;;;;;;;;;;5075240;28;20016;-64
2023/09/23 08:45:27;;;;;;;15.43;8.13;;;;;;;;;;5075706;28;20506;-62
2023/09/23 08:47:53;;;;;;;18.25;8.98;;;;;;;;;;5074651;28;20120;-62
2023/09/23 08:50:20;;;;;;;11.68;6.60;;;;;;;;;;5075095;28;20115;-63
2023/09/23 08:52:45;;;;;;;14.70;9.10;;;;;;;;;;5075148;28;20036;-62
2023/09/23 08:55:11;;;;;;;12.05;7.53;;;;;;;;;;5075212;28;20024;-63
2023/09/23 08:57:37;;;;;;;14.23;8.45;;;;;;;;;;5075199;28;20023;-65
2023/09/23 09:00:07;;;;;;;11.23;7.03;;;;;;;;;;5075067;28;20025;-65
2023/09/23 09:02:33;;;;;;;12.63;7.03;;;;;;;;;;5075111;28;20020;-64
2023/09/23 09:04:58;;;;;;;14.57;7.40;;;;;;;;;;5075124;28;20022;-66
2023/09/23 09:07:24;;;;;;;13.10;7.25;;;;;;;;;;5074927;28;20469;-64
2023/09/23 09:09:50;;;;;;;12.63;7.43;;;;;;;;;;5075580;28;20384;-64
2023/09/23 09:12:15;;;;;;;10.43;5.90;;;;;;;;;;5075547;28;20027;-60
2023/09/23 09:14:41;;;;;;;9.60;5.53;;;;;;;;;;5075889;28;20460;-60
2023/09/23 09:17:09;;;;;;;10.30;6.30;;;;;;;;;;5075661;28;20074;-61
2023/09/23 09:19:36;;;;;;;10.93;6.28;;;;;;;;;;5075199;28;20032;-58
2023/09/23 09:22:01;;;;;;;11.80;6.40;;;;;;;;;;5075077;28;20052;-59
2023/09/23 09:24:27;;;;;;;13.43;6.13;;;;;;;;;;5075047;28;20400;-59
2023/09/23 09:26:53;;;;;;;12.23;6.60;;;;;;;;;;5075331;28;20024;-59
2023/09/23 09:29:18;;;;;;;8.98;5.50;;;;;;;;;;5074733;28;20025;-60
2023/09/23 09:31:44;;;;;;;11.85;5.07;;;;;;;;;;5074527;28;20021;-61
2023/09/23 09:34:11;;;;;;;10.27;5.63;;;;;;;;;;5074637;28;20099;-62
2023/09/23 09:36:39;;;;;;;10.65;5.57;;;;;;;;;;5074437;28;20016;-61
2023/09/23 09:39:08;;;;;;;11.38;5.10;;;;;;;;;;5073948;28;20470;-60
2023/09/23 09:41:50;;;;;;;9.82;4.90;;;;;;;;;;5074291;28;20032;-62
2023/09/23 09:44:16;;;;;;;11.82;5.55;;;;;;;;;;5074503;28;20131;-62
2023/09/23 09:46:44;;;;;;;8.50;5.03;;;;;;;;;;5074656;28;20427;-60
2023/09/23 09:49:10;;;;;;;9.00;4.45;;;;;;;;;;5074448;28;20056;-58
2023/09/23 09:51:36;;;;;;;9.45;5.03;;;;;;;;;;5076782;28;20370;-62
2023/09/23 09:54:04;;;;;;;10.02;5.07;;;;;;;;;;5076209;28;20074;-61
2023/09/23 09:56:30;;;;;;;7.97;4.47;;;;;;;;;;5085038;28;20487;-61
2023/09/23 09:58:59;;;;;;;8.77;4.47;;;;;;;;;;5074008;28;20029;-61
2023/09/23 10:01:24;;;;;;;8.77;3.72;;;;;;;;;;5075264;28;20381;-62
2023/09/23 10:03:50;;;;;;;7.72;4.10;;;;;;;;;;5083956;28;20024;-62
2023/09/23 10:06:18;;;;;;;8.32;4.25;;;;;;;;;;5093647;28;20094;-60
2023/09/23 10:08:46;;;;;;;8.70;3.88;;;;;;;;;;5093113;28;20039;-60
2023/09/23 10:11:11;;;;;;;7.53;4.00;;;;;;;;;;5087028;28;20078;-61
2023/09/23 10:13:37;;;;;;;6.72;4.32;;;;;;;;;;5074742;28;20419;-60
2023/09/23 10:16:05;;;;;;;9.70;4.40;;;;;;;;;;5073243;28;20020;-63
2023/09/23 10:18:39;;;;;;;8.23;3.95;;;;;;;;;;5078767;28;20460;-59
2023/09/23 10:21:05;;;;;;;7.78;4.05;;;;;;;;;;5079181;28;20525;-61
2023/09/23 10:23:40;;;;;;;8.93;4.20;;;;;;;;;;5073787;28;20465;-59
2023/09/23 10:26:14;;;;;;;6.55;3.80;;;;;;;;;;5077546;28;20032;-63
2023/09/23 10:28:40;;;;;;;7.90;3.80;;;;;;;;;;5073111;28;20103;-60
2023/09/23 10:31:06;;;;;;;8.23;3.92;;;;;;;;;;5073283;28;20047;-64
2023/09/23 10:33:34;;;;;;;6.07;3.10;;;;;;;;;;5073502;28;20541;-66
2023/09/23 10:36:00;;;;;;;6.38;3.13;;;;;;;;;;5071698;28;20024;-66
2023/09/23 10:38:26;;;;;;;9.23;3.58;;;;;;;;;;5073448;28;20024;-66
2023/09/23 10:40:52;;;;;;;6.75;2.92;;;;;;;;;;5073044;28;20027;-65
2023/09/23 10:43:18;;;;;;;6.47;3.20;;;;;;;;;;5072222;28;20029;-66
2023/09/23 10:45:43;;;;;;;7.47;3.40;;;;;;;;;;5073102;28;20025;-64
2023/09/23 10:48:09;;;;;;;7.13;3.10;;;;;;;;;;5071765;28;20021;-64
2023/09/23 10:50:34;;;;;;;5.40;2.55;;;;;;;;;;5053243;28;20114;-65
2023/09/23 10:52:59;;;;;;;7.07;3.08;;;;;;;;;;5067476;28;20021;-65
2023/09/23 10:55:25;;;;;;;6.68;3.05;;;;;;;;;;5083631;28;20027;-64
2023/09/23 10:57:51;;;;;;;5.85;2.88;;;;;;;;;;5087638;28;20047;-63
2023/09/23 11:00:20;;;;;;;5.35;2.95;;;;;;;;;;5082719;28;20029;-65
2023/09/23 11:02:50;;;;;;;6.22;2.90;;;;;;;;;;5083853;28;20067;-64
2023/09/23 11:05:15;;;;;;;6.38;2.63;;;;;;;;;;5072967;28;20032;-65
2023/09/23 11:07:42;;;;;;;6.20;2.58;;;;;;;;;;5057001;28;20132;-64
2023/09/23 11:10:11;;;;;;;6.47;2.88;;;;;;;;;;5053068;28;20049;-65
2023/09/23 11:12:36;;;;;;;6.88;2.70;;;;;;;;;;5052760;28;20028;-65
2023/09/23 11:15:02;;;;;;;6.80;2.83;;;;;;;;;;5062676;28;20024;-65
2023/09/23 11:17:30;;;;;;;6.75;2.53;;;;;;;;;;5072715;28;20115;-64
2023/09/23 11:19:56;;;;;;;6.28;2.67;;;;;;;;;;5072782;28;20391;-64
2023/09/23 11:22:22;;;;;;;5.70;2.75;;;;;;;;;;5072756;28;20016;-65
2023/09/23 11:24:48;;;;;;;6.72;2.95;;;;;;;;;;5077010;28;20465;-64
2023/09/23 11:27:13;;;;;;;6.93;2.72;;;;;;;;;;5072934;28;20031;-65
2023/09/23 11:29:39;;;;;;;5.80;2.75;;;;;;;;;;5072862;28;20484;-65
2023/09/23 11:32:05;;;;;;;9.00;3.22;;;;;;;;;;5072265;28;20052;-65
2023/09/23 11:34:31;;;;;;;7.55;2.95;;;;;;;;;;5073495;28;20093;-65
2023/09/23 11:36:56;;;;;;;5.57;2.85;;;;;;;;;;5070214;28;20048;-64
2023/09/23 11:39:21;;;;;;;7.18;2.97;;;;;;;;;;5076599;28;20035;-66
2023/09/23 11:41:46;;;;;;;7.07;3.47;;;;;;;;;;5072852;28;20465;-63
2023/09/23 11:44:12;;;;;;;5.30;3.05;;;;;;;;;;5072827;28;20473;-60
2023/09/23 11:46:37;;;;;;;8.98;3.60;;;;;;;;;;5072660;28;20390;-59
2023/09/23 11:49:02;;;;;;;6.22;3.20;;;;;;;;;;5066800;28;20366;-60
2023/09/23 11:51:27;;;;;;;8.30;3.33;;;;;;;;;;5072797;28;20021;-59
2023/09/23 11:53:52;;;;;;;6.18;2.80;;;;;;;;;;5072615;28;20402;-62
2023/09/23 11:56:18;;;;;;;5.93;2.60;;;;;;;;;;5076281;28;20480;-62
2023/09/23 11:58:43;;;;;;;4.65;2.67;;;;;;;;;;5076387;28;20431;-64
2023/09/23 12:01:08;;;;;;;5.22;2.60;;;;;;;;;;5076079;28;20422;-59
2023/09/23 12:03:33;;;;;;;6.55;2.40;;;;;;;;;;5075463;28;20032;-62
2023/09/23 12:05:59;;;;;;;5.90;2.47;;;;;;;;;;5075989;28;20503;-62
2023/09/23 12:08:24;;;;;;;6.13;2.85;;;;;;;;;;5075868;28;20056;-64
2023/09/23 12:10:49;;;;;;;6.50;2.80;;;;;;;;;;5075730;28;20020;-62
2023/09/23 12:13:15;;;;;;;7.28;2.85;;;;;;;;;;5075543;28;20029;-62
2023/09/23 12:15:40;;;;;;;4.80;2.40;;;;;;;;;;5079427;28;20087;-61
2023/09/23 12:18:06;;;;;;;7.00;2.40;;;;;;;;;;5075999;28;20384;-60
2023/09/23 12:20:32;;;;;;;5.05;2.33;;;;;;;;;;5074799;28;20072;-61
2023/09/23 12:22:58;;;;;;;7.68;2.17;;;;;;;;;;5075521;28;20472;-60
2023/09/23 12:25:24;;;;;;;4.45;1.88;;;;;;;;;;5075831;28;20350;-64
2023/09/23 12:27:49;;;;;;;4.25;1.80;;;;;;;;;;5075170;28;20077;-60
2023/09/23 12:30:17;;;;;;;4.45;1.77;;;;;;;;;;5080319;28;20035;-61
2023/09/23 12:32:42;;;;;;;7.35;1.98;;;;;;;;;;5076185;28;20059;-64
2023/09/23 12:35:09;;;;;;;5.72;2.35;;;;;;;;;;5078338;28;20491;-60
2023/09/23 12:37:34;;;;;;;3.67;1.73;;;;;;;;;;5075270;28;20099;-63
2023/09/23 12:40:00;;;;;;;5.82;1.58;;;;;;;;;;5075319;28;20055;-61
2023/09/23 12:42:25;;;;;;;6.03;2.05;;;;;;;;;;5074797;28;20020;-59
2023/09/23 12:44:50;;;;;;;8.20;2.13;;;;;;;;;;5075181;28;20028;-63
2023/09/23 12:47:16;;;;;;;3.70;1.60;;;;;;;;;;5080012;28;20020;-63
2023/09/23 12:49:41;;;;;;;3.42;1.73;;;;;;;;;;5094296;28;20114;-61
2023/09/23 12:52:06;;;;;;;6.80;1.70;;;;;;;;;;5088891;28;20032;-62
2023/09/23 12:54:32;;;;;;;4.35;1.40;;;;;;;;;;5079778;28;20100;-61
2023/09/23 12:56:57;;;;;;;4.75;1.50;;;;;;;;;;5074952;28;20107;-62
2023/09/23 12:59:22;;;;;;;5.45;1.50;;;;;;;;;;5074898;28;20499;-61
2023/09/23 13:01:48;;;;;;;5.55;1.83;;;;;;;;;;5075024;28;20032;-63
2023/09/23 13:04:13;;;;;;;4.00;1.50;;;;;;;;;;5074814;28;20032;-61
2023/09/23 13:06:38;;;;;;;4.07;1.70;;;;;;;;;;5073573;28;20048;-62
2023/09/23 13:09:04;;;;;;;5.43;1.70;;;;;;;;;;5074589;28;20024;-61
2023/09/23 13:11:31;;;;;;;7.03;1.77;;;;;;;;;;5074903;28;20020;-61
2023/09/23 13:13:56;;;;;;;4.50;1.60;;;;;;;;;;5074815;28;20020;-60
2023/09/23 13:16:21;;;;;;;4.43;1.38;;;;;;;;;;5074442;28;20033;-63
2023/09/23 13:18:46;;;;;;;3.65;1.40;;;;;;;;;;5074703;28;20028;-60
2023/09/23 13:21:11;;;;;;;5.28;1.50;;;;;;;;;;5074410;28;20039;-63
2023/09/23 13:23:38;;;;;;;4.35;1.38;;;;;;;;;;5074479;28;20024;-60
2023/09/23 13:26:04;;;;;;;3.83;1.38;;;;;;;;;;5073256;28;20384;-63
2023/09/23 13:28:29;;;;;;;5.47;1.63;;;;;;;;;;5080716;28;20032;-63
2023/09/23 13:30:54;;;;;;;7.00;1.60;;;;;;;;;;5081061;28;20029;-62
2023/09/23 13:33:22;;;;;;;5.32;1.67;;;;;;;;;;5074394;28;20021;-63
2023/09/23 13:35:47;;;;;;;4.70;1.50;;;;;;;;;;5053887;28;20032;-62
2023/09/23 13:38:12;;;;;;;5.47;1.50;;;;;;;;;;5071857;28;20020;-63
2023/09/23 13:40:38;;;;;;;4.43;1.30;;;;;;;;;;5074463;28;20050;-61
2023/09/23 13:43:03;;;;;;;4.93;1.50;;;;;;;;;;5073760;28;20459;-61
2023/09/23 13:45:28;;;;;;;3.63;1.50;;;;;;;;;;5074387;28;20031;-58
2023/09/23 13:47:54;;;;;;;4.95;1.70;;;;;;;;;;5085942;28;20020;-59
2023/09/23 13:50:19;;;;;;;5.43;1.48;;;;;;;;;;5088456;28;20028;-62
2023/09/23 13:52:44;;;;;;;4.45;1.40;;;;;;;;;;5073456;28;20174;-61
2023/09/23 13:55:09;;;;;;;6.63;1.42;;;;;;;;;;5071688;28;20029;-62
2023/09/23 13:57:35;;;;;;;4.40;1.45;;;;;;;;;;5072760;28;20030;-63
2023/09/23 14:00:00;;;;;;;5.63;1.60;;;;;;;;;;5072442;28;20023;-62
2023/09/23 14:02:26;;;;;;;4.63;1.45;;;;;;;;;;5072858;28;20480;-62
2023/09/23 14:04:54;;;;;;;5.00;1.40;;;;;;;;;;5073615;28;20028;-60
2023/09/23 14:07:20;;;;;;;5.63;1.50;;;;;;;;;;5073531;28;20423;-60
2023/09/23 14:09:45;;;;;;;5.53;1.40;;;;;;;;;;5073899;28;20104;-61
2023/09/23 14:12:10;;;;;;;5.45;1.50;;;;;;;;;;5073328;28;20048;-63
2023/09/23 14:14:35;;;;;;;5.72;1.60;;;;;;;;;;5073328;28;20048;-61
2023/09/23 14:17:01;;;;;;;3.40;1.38;;;;;;;;;;5073051;28;20387;-61
2023/09/23 14:19:26;;;;;;;4.95;1.40;;;;;;;;;;5073690;28;20460;-63
2023/09/23 14:21:51;;;;;;;4.50;1.35;;;;;;;;;;5073417;28;20025;-64
2023/09/23 14:24:16;;;;;;;4.03;1.48;;;;;;;;;;5071231;28;20077;-63